createdAt,value
2018-05-18T00:02:24.954Z,1.87
2018-05-18T00:04:55.127Z,2.00
2018-05-18T00:07:25.461Z,1.63
2018-05-18T00:09:55.214Z,2.30
2018-05-18T00:12:25.605Z,4.27
2018-05-18T00:14:57.358Z,1.63
2018-05-18T00:17:27.619Z,1.50
2018-05-18T00:19:58.786Z,3.07
2018-05-18T00:22:30.173Z,2.27
2018-05-18T00:25:01.043Z,1.80
2018-05-18T00:27:31.903Z,2.27
2018-05-18T00:30:02.319Z,3.40
2018-05-18T00:32:32.868Z,3.57
2018-05-18T00:35:03.510Z,2.90
2018-05-18T00:37:34.495Z,2.43
2018-05-18T00:40:04.436Z,1.97
2018-05-18T00:42:35.339Z,2.03
2018-05-18T00:45:05.650Z,3.20
2018-05-18T00:47:36.388Z,5.63
2018-05-18T00:50:06.257Z,1.73
2018-05-18T00:52:38.323Z,3.07
2018-05-18T00:55:25.126Z,1.93
2018-05-18T00:57:57.347Z,1.73
2018-05-18T01:00:27.181Z,3.63
2018-05-18T01:03:02.116Z,5.03
2018-05-18T01:05:45.557Z,2.20
2018-05-18T01:08:15.585Z,4.40
2018-05-18T01:10:45.527Z,4.00
2018-05-18T01:13:16.393Z,1.77
2018-05-18T01:15:46.173Z,1.87
2018-05-18T01:18:16.053Z,1.67
2018-05-18T01:20:46.073Z,2.20
2018-05-18T01:23:16.348Z,2.07
2018-05-18T01:25:46.091Z,2.03
2018-05-18T01:28:15.841Z,2.93
2018-05-18T01:30:46.678Z,2.00
2018-05-18T01:33:17.874Z,1.77
2018-05-18T01:35:48.177Z,2.07
2018-05-18T01:38:18.857Z,3.43
2018-05-18T01:40:50.766Z,4.10
2018-05-18T01:43:20.581Z,1.87
2018-05-18T01:45:50.569Z,2.57
2018-05-18T01:48:20.329Z,2.00
2018-05-18T01:50:51.160Z,7.90
2018-05-18T01:53:21.073Z,5.90
2018-05-18T01:55:50.845Z,8.50
2018-05-18T01:58:20.673Z,6.07
2018-05-18T02:00:50.488Z,11.40
2018-05-18T02:03:20.487Z,2.07
2018-05-18T02:05:50.258Z,3.70
2018-05-18T02:08:21.161Z,2.93
2018-05-18T02:10:51.004Z,1.87
2018-05-18T02:13:21.739Z,3.37
2018-05-18T02:15:51.718Z,2.07
2018-05-18T02:18:21.452Z,2.30
2018-05-18T02:20:51.199Z,2.03
2018-05-18T02:23:20.984Z,4.07
2018-05-18T02:25:51.021Z,3.07
2018-05-18T02:28:20.979Z,2.73
2018-05-18T02:30:50.880Z,2.63
2018-05-18T02:33:20.686Z,4.43
2018-05-18T02:35:51.274Z,2.20
2018-05-18T02:38:21.141Z,2.27
2018-05-18T02:40:51.728Z,5.07
2018-05-18T02:43:21.569Z,2.53
2018-05-18T02:45:51.373Z,4.23
2018-05-18T02:48:21.141Z,4.37
2018-05-18T02:50:51.061Z,3.07
2018-05-18T02:53:20.838Z,2.77
2018-05-18T02:55:50.692Z,2.70
2018-05-18T02:58:20.600Z,3.53
2018-05-18T03:00:51.962Z,2.53
2018-05-18T03:03:21.782Z,3.33
2018-05-18T03:05:51.520Z,3.10
2018-05-18T03:08:21.379Z,2.57
2018-05-18T03:10:51.167Z,3.27
2018-05-18T03:13:21.034Z,3.57
2018-05-18T03:15:50.785Z,3.50
2018-05-18T03:18:20.572Z,3.60
2018-05-18T03:20:50.385Z,3.43
2018-05-18T03:23:20.220Z,3.53
2018-05-18T03:25:50.716Z,3.17
2018-05-18T03:28:20.487Z,4.00
2018-05-18T03:30:50.311Z,3.97
2018-05-18T03:33:20.183Z,5.60
2018-05-18T03:35:49.993Z,2.80
2018-05-18T03:38:19.780Z,2.50
2018-05-18T03:40:49.995Z,2.40
2018-05-18T03:43:19.722Z,5.50
2018-05-18T03:45:49.506Z,2.77
2018-05-18T03:48:19.361Z,2.57
2018-05-18T03:50:49.643Z,3.57
2018-05-18T03:53:19.568Z,3.33
2018-05-18T03:55:49.996Z,2.73
2018-05-18T03:58:20.811Z,3.10
2018-05-18T04:00:53.465Z,3.83
2018-05-18T04:03:35.064Z,3.53
2018-05-18T04:06:16.669Z,3.20
2018-05-18T04:08:55.024Z,3.20
2018-05-18T04:11:26.871Z,4.23
2018-05-18T04:13:58.084Z,3.67
2018-05-18T04:16:29.204Z,2.67
2018-05-18T04:18:59.893Z,2.47
2018-05-18T04:21:30.304Z,2.77
2018-05-18T04:24:00.983Z,2.80
2018-05-18T04:26:31.654Z,3.03
2018-05-18T04:29:02.157Z,2.83
2018-05-18T04:31:33.267Z,2.50
2018-05-18T04:34:03.084Z,2.77
2018-05-18T04:36:35.078Z,2.80
2018-05-18T04:39:05.593Z,2.90
2018-05-18T04:41:35.420Z,2.40
2018-05-18T04:44:06.013Z,3.50
2018-05-18T04:46:35.785Z,4.57
2018-05-18T04:49:05.595Z,2.70
2018-05-18T04:51:35.415Z,5.47
2018-05-18T04:54:05.177Z,4.00
2018-05-18T04:56:34.892Z,2.60
2018-05-18T04:59:04.684Z,2.40
2018-05-18T05:01:36.067Z,4.07
2018-05-18T05:04:06.580Z,3.97
2018-05-18T05:06:36.364Z,4.33
2018-05-18T05:09:06.476Z,2.57
2018-05-18T05:11:36.276Z,3.73
2018-05-18T05:14:07.840Z,4.57
2018-05-18T05:16:37.727Z,3.20
2018-05-18T05:19:07.548Z,2.30
2018-05-18T05:21:37.268Z,2.03
2018-05-18T05:24:07.033Z,2.87
2018-05-18T05:26:36.956Z,5.47
2018-05-18T05:29:07.526Z,2.70
2018-05-18T05:31:37.262Z,3.40
2018-05-18T05:34:07.011Z,2.60
2018-05-18T05:36:41.458Z,2.67
2018-05-18T05:39:11.301Z,2.70
2018-05-18T05:41:41.812Z,4.63
2018-05-18T05:44:12.760Z,2.40
2018-05-18T05:46:42.512Z,1.93
2018-05-18T05:49:12.318Z,2.90
2018-05-18T05:51:42.982Z,4.60
2018-05-18T05:54:12.704Z,3.03
2018-05-18T05:56:43.229Z,5.03
2018-05-18T05:59:13.067Z,2.30
2018-05-18T06:01:42.897Z,2.33
2018-05-18T06:04:12.668Z,1.80
2018-05-18T06:06:42.389Z,2.57
2018-05-18T06:09:12.205Z,2.63
2018-05-18T06:11:41.956Z,2.83
2018-05-18T06:14:11.859Z,2.83
2018-05-18T06:16:41.568Z,3.00
2018-05-18T06:19:11.447Z,2.80
2018-05-18T06:21:41.170Z,5.27
2018-05-18T06:24:11.726Z,3.10
2018-05-18T06:26:42.046Z,3.50
2018-05-18T06:29:11.899Z,3.10
2018-05-18T06:31:42.944Z,1.90
2018-05-18T06:34:13.227Z,4.03
2018-05-18T06:36:42.981Z,2.87
2018-05-18T06:39:13.171Z,2.53
2018-05-18T06:41:43.319Z,2.97
2018-05-18T06:44:13.115Z,5.27
2018-05-18T06:46:43.458Z,4.10
2018-05-18T06:49:14.636Z,4.13
2018-05-18T06:51:44.906Z,4.83
2018-05-18T06:54:16.027Z,4.67
2018-05-18T06:56:46.458Z,4.93
2018-05-18T06:59:16.923Z,4.73
2018-05-18T07:01:47.351Z,5.77
2018-05-18T07:04:18.742Z,3.40
2018-05-18T07:06:49.388Z,4.87
2018-05-18T07:09:19.128Z,3.97
2018-05-18T07:11:49.434Z,5.87
2018-05-18T07:14:20.047Z,4.90
2018-05-18T07:16:50.483Z,4.73
2018-05-18T07:19:20.717Z,4.43
2018-05-18T07:21:50.421Z,3.20
2018-05-18T07:24:20.775Z,5.30
2018-05-18T07:26:51.699Z,4.83
2018-05-18T07:29:22.015Z,3.50
2018-05-18T07:31:53.456Z,2.97
2018-05-18T07:34:23.778Z,3.87
2018-05-18T07:36:53.535Z,5.70
2018-05-18T07:39:23.893Z,4.20
2018-05-18T07:41:54.445Z,3.67
2018-05-18T07:44:24.877Z,3.70
2018-05-18T07:46:55.488Z,4.83
2018-05-18T07:49:26.029Z,4.77
2018-05-18T07:51:55.773Z,5.57
2018-05-18T07:54:26.482Z,4.50
2018-05-18T07:56:56.863Z,3.77
2018-05-18T07:59:27.777Z,6.23
2018-05-18T08:01:58.908Z,4.37
2018-05-18T08:04:28.947Z,5.87
2018-05-18T08:06:59.230Z,5.70
2018-05-18T08:09:29.414Z,4.80
2018-05-18T08:12:00.598Z,4.13
2018-05-18T08:14:30.606Z,4.27
2018-05-18T08:17:00.752Z,6.43
2018-05-18T08:19:30.979Z,4.77
2018-05-18T08:22:01.334Z,5.20
2018-05-18T08:24:32.558Z,8.70
2018-05-18T08:27:13.930Z,4.77
2018-05-18T08:29:45.366Z,6.83
2018-05-18T08:32:15.172Z,4.70
2018-05-18T08:34:45.011Z,6.33
2018-05-18T08:37:14.782Z,5.90
2018-05-18T08:39:45.345Z,7.30
2018-05-18T08:42:15.775Z,6.97
2018-05-18T08:44:46.291Z,7.87
2018-05-18T08:47:17.007Z,7.17
2018-05-18T08:49:47.878Z,7.97
2018-05-18T08:52:18.487Z,5.57
2018-05-18T08:54:48.835Z,6.43
2018-05-18T08:57:19.547Z,5.80
2018-05-18T08:59:49.897Z,9.20
2018-05-18T09:02:19.599Z,10.63
2018-05-18T09:04:49.304Z,8.03
2018-05-18T09:07:19.041Z,6.03
2018-05-18T09:09:48.797Z,5.60
2018-05-18T09:12:18.469Z,4.57
2018-05-18T09:14:48.220Z,10.63
2018-05-18T09:17:17.935Z,8.83
2018-05-18T09:19:47.665Z,11.17
2018-05-18T09:22:17.423Z,7.30
2018-05-18T09:24:48.011Z,7.57
2018-05-18T09:27:17.745Z,11.50
2018-05-18T09:29:47.439Z,12.17
2018-05-18T09:32:17.121Z,8.00
2018-05-18T09:34:46.803Z,5.60
2018-05-18T09:37:16.539Z,8.40
2018-05-18T09:39:46.484Z,7.50
2018-05-18T09:42:16.317Z,8.33
2018-05-18T09:44:46.133Z,8.47
2018-05-18T09:47:16.606Z,6.20
2018-05-18T09:49:46.426Z,7.57
2018-05-18T09:52:17.169Z,6.83
2018-05-18T09:54:47.834Z,9.73
2018-05-18T09:57:18.715Z,9.67
2018-05-18T09:59:48.965Z,11.67
2018-05-18T10:02:20.056Z,11.93
2018-05-18T10:04:51.811Z,10.70
2018-05-18T10:07:23.308Z,8.00
2018-05-18T10:09:54.616Z,11.30
2018-05-18T10:12:25.816Z,11.00
2018-05-18T10:14:56.671Z,9.30
2018-05-18T10:17:27.546Z,10.07
2018-05-18T10:19:57.552Z,9.90
2018-05-18T10:22:27.504Z,11.80
2018-05-18T10:24:57.430Z,11.67
2018-05-18T10:27:27.177Z,10.83
2018-05-18T10:29:57.661Z,8.93
2018-05-18T10:32:27.453Z,10.97
2018-05-18T10:34:57.547Z,9.77
2018-05-18T10:37:28.448Z,12.43
2018-05-18T10:39:58.808Z,10.07
2018-05-18T10:42:29.323Z,6.83
2018-05-18T10:45:00.568Z,10.70
2018-05-18T10:47:31.012Z,10.57
2018-05-18T10:50:01.552Z,11.23
2018-05-18T10:52:32.739Z,9.60
2018-05-18T10:55:02.454Z,14.30
2018-05-18T10:57:32.186Z,11.23
2018-05-18T11:00:01.889Z,8.13
2018-05-18T11:02:31.998Z,12.37
2018-05-18T11:05:01.717Z,10.30
2018-05-18T11:07:31.579Z,11.63
2018-05-18T11:10:02.752Z,9.43
2018-05-18T11:12:33.494Z,8.90
2018-05-18T11:15:03.202Z,9.73
2018-05-18T11:17:34.366Z,12.43
2018-05-18T11:20:04.947Z,8.97
2018-05-18T11:22:34.592Z,8.77
2018-05-18T11:25:04.283Z,10.77
2018-05-18T11:27:34.041Z,7.50
2018-05-18T11:30:04.100Z,10.27
2018-05-18T11:32:33.852Z,11.07
2018-05-18T11:35:03.620Z,10.77
2018-05-18T11:37:33.408Z,13.60
2018-05-18T11:40:03.119Z,10.70
2018-05-18T11:42:32.923Z,11.43
2018-05-18T11:45:02.672Z,11.50
2018-05-18T11:47:32.374Z,9.67
2018-05-18T11:50:03.601Z,7.93
2018-05-18T11:52:34.088Z,9.60
2018-05-18T11:55:03.862Z,13.10
2018-05-18T11:57:33.610Z,14.07
2018-05-18T12:00:03.340Z,14.17
2018-05-18T12:02:33.175Z,12.47
2018-05-18T12:05:02.933Z,10.73
2018-05-18T12:07:32.646Z,11.97
2018-05-18T12:10:02.343Z,10.47
2018-05-18T12:12:32.780Z,9.47
2018-05-18T12:15:02.516Z,13.23
2018-05-18T12:17:32.204Z,7.33
2018-05-18T12:20:01.868Z,9.63
2018-05-18T12:22:32.106Z,10.03
2018-05-18T12:25:03.503Z,9.97
2018-05-18T12:27:33.840Z,9.73
2018-05-18T12:30:04.336Z,11.00
2018-05-18T12:32:34.537Z,9.33
2018-05-18T12:35:05.017Z,7.03
2018-05-18T12:37:34.722Z,6.17
2018-05-18T12:40:05.031Z,11.63
2018-05-18T12:42:35.587Z,6.23
2018-05-18T12:45:05.832Z,6.93
2018-05-18T12:47:36.935Z,5.60
2018-05-18T12:50:07.367Z,7.13
2018-05-18T12:52:37.809Z,5.20
2018-05-18T12:55:08.333Z,5.60
2018-05-18T12:57:38.377Z,7.43
2018-05-18T13:00:08.811Z,5.23
2018-05-18T13:02:39.361Z,7.80
2018-05-18T13:05:09.092Z,6.57
2018-05-18T13:07:38.841Z,9.13
2018-05-18T13:10:08.570Z,10.83
2018-05-18T13:12:39.674Z,3.67
2018-05-18T13:15:09.540Z,5.67
2018-05-18T13:17:39.246Z,3.77
2018-05-18T13:20:09.030Z,4.77
2018-05-18T13:22:38.894Z,4.30
2018-05-18T13:25:08.738Z,4.80
2018-05-18T13:27:38.580Z,6.60
2018-05-18T13:30:09.210Z,5.47
2018-05-18T13:32:38.930Z,4.50
2018-05-18T13:35:08.706Z,6.33
2018-05-18T13:37:38.514Z,6.33
2018-05-18T13:40:08.267Z,4.37
2018-05-18T13:42:38.838Z,6.53
2018-05-18T13:45:08.633Z,5.97
2018-05-18T13:47:39.808Z,6.47
2018-05-18T13:50:10.567Z,5.93
2018-05-18T13:52:41.114Z,5.53
2018-05-18T13:55:11.662Z,8.33
2018-05-18T13:57:43.098Z,4.77
2018-05-18T14:00:13.660Z,6.77
2018-05-18T14:02:43.453Z,5.80
2018-05-18T14:05:13.258Z,4.73
2018-05-18T14:07:43.035Z,9.00
2018-05-18T14:10:12.798Z,5.83
2018-05-18T14:12:42.556Z,8.73
2018-05-18T14:15:12.284Z,6.00
2018-05-18T14:17:42.044Z,7.23
2018-05-18T14:20:11.896Z,6.47
2018-05-18T14:22:42.117Z,7.17
2018-05-18T14:25:12.647Z,6.13
2018-05-18T14:27:42.430Z,4.67
2018-05-18T14:30:12.285Z,5.97
2018-05-18T14:32:42.819Z,6.97
2018-05-18T14:35:13.171Z,5.70
2018-05-18T14:37:44.593Z,7.97
2018-05-18T14:40:15.889Z,6.83
2018-05-18T14:42:45.890Z,10.30
2018-05-18T14:45:16.843Z,5.37
2018-05-18T14:47:47.405Z,5.67
2018-05-18T14:50:18.493Z,5.90
2018-05-18T14:52:49.826Z,9.77
2018-05-18T14:55:20.303Z,7.80
2018-05-18T14:57:50.732Z,7.77
2018-05-18T15:00:20.947Z,7.83
2018-05-18T15:02:51.195Z,9.20
2018-05-18T15:05:21.848Z,6.90
2018-05-18T15:07:52.340Z,5.63
2018-05-18T15:10:23.583Z,7.17
2018-05-18T15:12:53.968Z,7.30
2018-05-18T15:15:23.964Z,5.17
2018-05-18T15:17:54.378Z,5.73
2018-05-18T15:20:24.702Z,7.67
2018-05-18T15:22:55.043Z,6.57
2018-05-18T15:25:25.451Z,5.27
2018-05-18T15:27:55.517Z,6.27
2018-05-18T15:30:27.019Z,4.70
2018-05-18T15:32:57.465Z,4.90
2018-05-18T15:35:27.632Z,4.70
2018-05-18T15:37:58.196Z,5.60
2018-05-18T15:40:28.414Z,5.30
2018-05-18T15:42:58.647Z,6.80
2018-05-18T15:45:28.866Z,6.17
2018-05-18T15:47:59.294Z,3.90
2018-05-18T15:50:29.426Z,4.70
2018-05-18T15:52:59.869Z,4.27
2018-05-18T15:55:30.460Z,4.07
2018-05-18T15:58:00.781Z,5.20
2018-05-18T16:00:30.925Z,4.13
2018-05-18T16:03:01.313Z,6.07
2018-05-18T16:05:31.667Z,7.80
2018-05-18T16:08:01.961Z,4.13
2018-05-18T16:10:32.216Z,4.90
2018-05-18T16:13:02.553Z,10.80
2018-05-18T16:15:32.832Z,4.77
2018-05-18T16:18:03.275Z,6.30
2018-05-18T16:20:33.414Z,5.73
2018-05-18T16:23:03.993Z,3.80
2018-05-18T16:25:34.246Z,7.87
2018-05-18T16:28:04.375Z,3.73
2018-05-18T16:30:34.794Z,4.73
2018-05-18T16:33:05.219Z,6.50
2018-05-18T16:35:35.465Z,5.23
2018-05-18T16:38:05.609Z,5.87
2018-05-18T16:40:36.112Z,3.43
2018-05-18T16:43:06.580Z,6.67
2018-05-18T16:45:36.920Z,3.63
2018-05-18T16:48:07.319Z,5.00
2018-05-18T16:50:37.599Z,5.63
2018-05-18T16:53:08.167Z,8.53
2018-05-18T16:55:38.518Z,4.40
2018-05-18T16:58:09.787Z,4.43
2018-05-18T17:00:40.073Z,4.43
2018-05-18T17:03:10.576Z,5.03
2018-05-18T17:05:41.126Z,4.20
2018-05-18T17:08:11.627Z,4.97
2018-05-18T17:10:42.183Z,4.90
2018-05-18T17:13:12.783Z,4.30
2018-05-18T17:15:43.513Z,5.20
2018-05-18T17:18:13.973Z,3.97
2018-05-18T17:20:43.997Z,4.97
2018-05-18T17:23:14.604Z,4.40
2018-05-18T17:25:44.994Z,4.87
2018-05-18T17:28:15.437Z,4.33
2018-05-18T17:30:45.782Z,3.10
2018-05-18T17:33:16.382Z,6.47
2018-05-18T17:35:46.853Z,3.77
2018-05-18T17:38:17.386Z,3.90
2018-05-18T17:40:47.914Z,5.93
2018-05-18T17:43:18.133Z,5.70
2018-05-18T17:45:48.916Z,3.97
2018-05-18T17:48:19.590Z,3.93
2018-05-18T17:50:49.921Z,4.80
2018-05-18T17:53:20.079Z,5.60
2018-05-18T17:55:51.327Z,6.07
2018-05-18T17:58:22.851Z,4.60
2018-05-18T18:00:53.507Z,6.53
2018-05-18T18:03:24.616Z,5.13
2018-05-18T18:05:55.099Z,4.53
2018-05-18T18:08:26.164Z,5.40
2018-05-18T18:10:56.818Z,4.93
2018-05-18T18:13:27.165Z,6.83
2018-05-18T18:15:57.149Z,4.90
2018-05-18T18:18:27.489Z,8.77
2018-05-18T18:20:59.537Z,7.37
2018-05-18T18:23:30.179Z,8.70
2018-05-18T18:26:00.308Z,4.73
2018-05-18T18:28:30.581Z,6.33
2018-05-18T18:31:00.680Z,6.53
2018-05-18T18:33:30.888Z,6.50
2018-05-18T18:36:01.026Z,9.97
2018-05-18T18:38:31.133Z,8.63
2018-05-18T18:41:01.352Z,6.20
2018-05-18T18:43:31.552Z,8.07
2018-05-18T18:46:02.167Z,7.77
2018-05-18T18:48:32.523Z,7.57
2018-05-18T18:51:02.697Z,7.50
2018-05-18T18:53:32.748Z,10.57
2018-05-18T18:56:03.308Z,7.63
2018-05-18T18:58:33.724Z,6.87
2018-05-18T19:01:03.746Z,7.93
2018-05-18T19:03:33.967Z,7.87
2018-05-18T19:06:04.951Z,8.67
2018-05-18T19:08:35.904Z,6.77
2018-05-18T19:11:06.552Z,8.23
2018-05-18T19:13:38.642Z,9.77
2018-05-18T19:16:12.524Z,9.87
2018-05-18T19:18:52.411Z,12.40
2018-05-18T19:21:27.091Z,6.13
2018-05-18T19:23:57.638Z,9.33
2018-05-18T19:26:27.966Z,9.83
2018-05-18T19:29:01.408Z,7.23
2018-05-18T19:31:32.408Z,7.20
2018-05-18T19:34:02.616Z,8.50
2018-05-18T19:36:33.621Z,7.40
2018-05-18T19:39:04.838Z,10.67
2018-05-18T19:41:35.539Z,5.60
2018-05-18T19:44:10.239Z,9.13
2018-05-18T19:46:52.791Z,7.47
2018-05-18T19:49:36.699Z,8.33
2018-05-18T19:52:21.492Z,10.47
2018-05-18T19:54:52.464Z,6.57
2018-05-18T19:57:23.489Z,6.13
2018-05-18T19:59:53.484Z,6.63
2018-05-18T20:02:23.602Z,6.53
2018-05-18T20:04:54.024Z,7.07
2018-05-18T20:07:24.301Z,8.63
2018-05-18T20:09:55.363Z,14.77
2018-05-18T20:12:25.705Z,5.73
2018-05-18T20:14:55.834Z,7.97
2018-05-18T20:17:25.877Z,8.10
2018-05-18T20:19:56.375Z,10.07
2018-05-18T20:22:26.606Z,9.13
2018-05-18T20:24:57.321Z,7.30
2018-05-18T20:27:27.398Z,8.93
2018-05-18T20:29:58.714Z,7.43
2018-05-18T20:32:28.851Z,9.17
2018-05-18T20:34:59.362Z,10.40
2018-05-18T20:37:29.645Z,11.00
2018-05-18T20:40:00.315Z,8.40
2018-05-18T20:42:30.120Z,10.00
2018-05-18T20:45:00.705Z,7.93
2018-05-18T20:47:31.204Z,10.50
2018-05-18T20:50:01.520Z,9.00
2018-05-18T20:52:31.865Z,8.27
2018-05-18T20:55:02.368Z,11.63
2018-05-18T20:57:32.994Z,10.37
2018-05-18T21:00:03.338Z,10.20
2018-05-18T21:02:33.476Z,11.60
2018-05-18T21:05:03.536Z,12.53
2018-05-18T21:07:33.779Z,13.33
2018-05-18T21:10:03.544Z,10.23
2018-05-18T21:12:34.471Z,13.60
2018-05-18T21:15:04.764Z,10.87
2018-05-18T21:17:34.923Z,11.23
2018-05-18T21:20:05.174Z,8.93
2018-05-18T21:22:35.677Z,9.53
2018-05-18T21:25:07.016Z,8.87
2018-05-18T21:27:37.552Z,10.87
2018-05-18T21:30:08.092Z,9.03
2018-05-18T21:32:39.537Z,13.13
2018-05-18T21:35:10.233Z,11.73
2018-05-18T21:37:40.436Z,9.07
2018-05-18T21:40:11.119Z,10.13
2018-05-18T21:42:42.731Z,10.07
2018-05-18T21:45:13.264Z,10.17
2018-05-18T21:47:44.405Z,10.63
2018-05-18T21:50:14.936Z,9.50
2018-05-18T21:52:45.074Z,12.07
2018-05-18T21:55:15.042Z,10.03
2018-05-18T21:57:45.001Z,9.87
2018-05-18T22:00:15.051Z,9.93
2018-05-18T22:02:45.573Z,12.40
2018-05-18T22:05:16.213Z,9.07
2018-05-18T22:07:49.231Z,10.60
2018-05-18T22:10:20.797Z,13.83
2018-05-18T22:12:51.893Z,9.50
2018-05-18T22:15:22.158Z,9.60
2018-05-18T22:17:52.430Z,9.67
2018-05-18T22:20:22.751Z,9.90
2018-05-18T22:22:53.245Z,8.83
2018-05-18T22:25:23.871Z,10.23
2018-05-18T22:27:54.415Z,12.13
2018-05-18T22:30:24.652Z,11.47
2018-05-18T22:32:55.254Z,8.47
2018-05-18T22:35:25.447Z,9.43
2018-05-18T22:37:55.831Z,10.70
2018-05-18T22:40:26.284Z,11.70
2018-05-18T22:42:57.913Z,9.27
2018-05-18T22:45:28.655Z,7.70
2018-05-18T22:47:59.050Z,9.13
2018-05-18T22:50:28.820Z,9.37
2018-05-18T22:52:59.380Z,7.53
2018-05-18T22:55:29.124Z,9.63
2018-05-18T22:57:59.527Z,9.00
2018-05-18T23:00:30.110Z,8.33
2018-05-18T23:03:00.645Z,7.83
2018-05-18T23:05:31.214Z,9.87
2018-05-18T23:08:02.074Z,7.67
2018-05-18T23:10:32.336Z,9.73
2018-05-18T23:13:02.873Z,9.37
2018-05-18T23:15:32.976Z,9.57
2018-05-18T23:18:03.099Z,8.17
2018-05-18T23:20:34.473Z,11.10
2018-05-18T23:23:06.380Z,10.17
2018-05-18T23:25:36.161Z,9.27
2018-05-18T23:28:06.636Z,8.67
2018-05-18T23:30:36.914Z,10.20
2018-05-18T23:33:07.456Z,8.03
2018-05-18T23:35:37.675Z,9.60
2018-05-18T23:38:08.217Z,11.30
2018-05-18T23:40:39.023Z,9.03
2018-05-18T23:43:08.776Z,8.13
2018-05-18T23:45:39.129Z,9.40
2018-05-18T23:48:09.390Z,11.07
2018-05-18T23:50:39.580Z,11.90
2018-05-18T23:53:10.152Z,8.27
2018-05-18T23:55:39.854Z,10.83
2018-05-18T23:58:09.552Z,9.53
